METAR Data
IDs: Format: Raw Decoded Include TAF

Data at: 2203 UTC 20 Nov 2018

KRKP 202153Z AUTO 03010KT 10SM CLR 17/07 A3023 RMK AO2 SLP239 T01720067
KRKP 202053Z AUTO 36009KT 10SM CLR 17/06 A3024 RMK AO2 SLP243 T01720061 56022
KRKP 201953Z AUTO 35009KT 10SM OVC045 17/07 A3026 RMK AO2 SLP246 T01670067
KRKP 201853Z AUTO 02009KT 10SM OVC045 15/06 A3028 RMK AO2 SLP256 T01500061
KRKP 201753Z AUTO 04011KT 10SM OVC044 13/06 A3031 RMK AO2 SLP265 T01330061 10139 20100 50000
KRKP 201653Z AUTO 02014KT 10SM OVC042 14/06 A3032 RMK AO2 SLP269 T01390056
KRKP 201553Z AUTO 05015G18KT 10SM BKN042 13/05 A3033 RMK AO2 SLP272 T01330050
KRKP 201453Z AUTO 01015G22KT 10SM OVC043 12/06 A3031 RMK AO2 SLP265 T01220056 51023
KRKP 201353Z AUTO 01011KT 10SM CLR 10/05 A3029 RMK AO2 SLP259 T01000050
KRKP 201253Z AUTO 36010KT 10SM FEW038 SCT055 BKN075 11/06 A3026 RMK AO2 SLP249 T01060056
KRKP 201153Z AUTO 01014KT 10SM OVC038 11/06 A3024 RMK AO2 SLP242 T01110056 10111 20106 53015
KRKP 201053Z AUTO 02012G21KT 10SM OVC036 11/06 A3021 RMK AO2 SLP233 T01110061
KRKP 200953Z AUTO 01011KT 10SM OVC030 11/07 A3020 RMK AO2 SLP228 T01110067
KRKP 200937Z AUTO 36014KT 10SM OVC030 11/07 A3020 RMK AO2 T01110067
KRKP 200853Z AUTO 36008KT 10SM OVC025 11/07 A3020 RMK AO2 SLP227 T01110067 55001
KRKP 200753Z AUTO 01012KT 10SM OVC021 11/07 A3019 RMK AO2 SLP226 T01110072
KRKP 200653Z AUTO 36011KT 10SM OVC016 11/08 A3019 RMK AO2 SLP226 T01110078
KRKP 200553Z AUTO 34010KT 10SM OVC015 11/08 A3020 RMK AO2 SLP228 T01110083 10111 20100 401110083 51009
KRKP 200507Z AUTO 36010KT 10SM OVC015 11/08 A3019 RMK AO2 T01110083
KRKP 200453Z AUTO 35009KT 10SM OVC014 11/09 A3020 RMK AO2 SLP227 T01110089
KRKP 200353Z AUTO 35010KT 9SM OVC013 11/09 A3018 RMK AO2 SLP221 T01110089
KRKP 200253Z AUTO 01007KT 9SM OVC012 11/09 A3017 RMK AO2 SLP219 T01110089 51016
KRKP 200200Z AUTO 36008KT 8SM OVC010 11/09 A3016 RMK AO2 T01060089
KRKP 200153Z AUTO 36008KT 8SM OVC009 11/09 A3016 RMK AO2 SLP214 T01060089
KRKP 200053Z AUTO 35007KT 7SM OVC009 11/09 A3015 RMK AO2 SLP211 T01060089
KRKP 192353Z AUTO 36008KT 6SM BR OVC008 10/09 A3013 RMK AO2 SLP202 T01000089 10100 20094 50007
KRKP 192253Z AUTO 35012KT 5SM BR OVC007 10/09 A3013 RMK AO2 SLP203 T01000089
KRKP 192153Z AUTO 36009KT 5SM BR OVC006 10/09 A3011 RMK AO2 SLP196 T01000089
KRKP 192151Z AUTO 36010KT 5SM BR OVC006 10/09 A3011 RMK AO2
KRKP 192117Z AUTO 34010KT 4SM BR OVC005 10/09 A3010 RMK AO2 T01000089
KRKP 192053Z AUTO 36013KT 3SM BR OVC004 10/09 A3010 RMK AO2 SLP194 T01000089 58013
KRKP 192045Z AUTO 36011KT 3SM BR OVC004 09/09 A3010 RMK AO2 T00940089
KRKP 192003Z AUTO 34009KT 4SM BR OVC005 10/09 A3012 RMK AO2 T01000089
KRKP 191953Z AUTO 36010KT 5SM BR OVC004 10/09 A3012 RMK AO2 SLP201 T01000089
KRKP 191940Z AUTO 35011KT 4SM BR OVC004 09/09 A3012 RMK AO2 T00940089
KRKP 191926Z AUTO 34013KT 4SM BR OVC005 09/08 A3013 RMK AO2 T00940083
KRKP 191853Z AUTO 35008KT 5SM BR OVC004 09/08 A3014 RMK AO2 SLP207 T00940083
KRKP 191849Z AUTO 35008KT 5SM BR OVC004 09/08 A3014 RMK AO2
KRKP 191753Z AUTO 35013KT 5SM BR OVC005 09/08 A3016 RMK AO2 SLP216 T00940083 10094 20083 58004
KRKP 191601Z AUTO 36011KT 5SM BR OVC005 09/08 A3017 RMK AO2 T00890083
KRKP 191553Z AUTO 36011KT 5SM BR OVC006 09/08 A3018 RMK AO2 SLP220 T00940083
KRKP 191551Z AUTO 36010KT 5SM BR OVC006 09/08 A3018 RMK AO2
KRKP 191450Z AUTO 36010KT 4SM BR OVC005 09/08 A3016 RMK AO2
KRKP 191353Z AUTO 36011KT 3SM BR OVC004 09/08 A3015 RMK AO2 SLP211 T00890083
KRKP 191344Z AUTO 35012KT 4SM BR OVC004 09/08 A3015 RMK AO2 T00890083
KRKP 191332Z AUTO 36011KT 4SM BR OVC003 09/08 A3014 RMK AO2 T00890083 $
KRKP 191323Z AUTO 36013KT 2 1/2SM BR OVC003 09/08 A3014 RMK AO2 T00890083 $
KRKP 191253Z AUTO 35010KT 4SM BR OVC003 09/08 A3013 RMK AO2 SLP204 T00890083 $
KRKP 191239Z AUTO 01014KT 4SM BR OVC003 08/08 A3011 RMK AO2 T00830083 $
KRKP 191227Z AUTO 35012KT 2 1/2SM BR OVC003 09/08 A3012 RMK AO2 T00890083 $
KRKP 191210Z AUTO 36011KT 3SM BR OVC003 09/09 A3012 RMK AO2 T00890089 $
KRKP 191153Z AUTO 36009KT 2 1/2SM BR OVC003 09/09 A3011 RMK AO2 RAB10E20 SLP197 P0000 60000 7//// T00940089 10100 20089 51001 $
KRKP 191136Z AUTO 01013KT 2 1/2SM BR OVC003 09/09 A3011 RMK AO2 RAB10E20 P0000 T00890089 $
KRKP 191122Z AUTO 35012KT 1 3/4SM BR OVC003 09/09 A3010 RMK AO2 RAB10E20 P0000 T00940089 $
KRKP 191115Z AUTO 36011KT 2SM -RA BR OVC003 09/09 A3010 RMK AO2 RAB10 P0000 T00940094 $
KRKP 191053Z AUTO 36011KT 2 1/2SM BR OVC003 09/09 A3011 RMK AO2 SLP196 T00940089 $
KRKP 191033Z AUTO 36011KT 2 1/2SM BR OVC003 09/09 A3011 RMK AO2 T00940094 $